Time;durP1;ratioP1;P1;durP2;ratioP2;P2;SDS_P1;SDS_P2;PMS_P1;PMS_P2;Temp;Humidity;BMP_temperature;BMP_pressure;BME280_temperature;BME280_humidity;BME280_pressure;Samples;Min_cycle;Max_cycle;Signal;HPM_P1;HPM_P2
2023/04/19 00:00:07;;;;;;;7.80;5.30;;;11.10;99.90;;;;;;5013673;28;20030;-81
2023/04/19 00:02:33;;;;;;;8.38;5.50;;;11.10;99.90;;;;;;5014732;28;20503;-79
2023/04/19 00:04:59;;;;;;;9.13;6.65;;;11.00;99.90;;;;;;5016362;28;20030;-79
2023/04/19 00:07:25;;;;;;;9.57;6.47;;;11.00;99.90;;;;;;5015319;28;20033;-80
2023/04/19 00:09:50;;;;;;;9.52;6.45;;;11.00;99.90;;;;;;5016959;28;20025;-81
2023/04/19 00:12:16;;;;;;;8.52;6.07;;;11.00;99.90;;;;;;5015656;28;20415;-81
2023/04/19 00:14:41;;;;;;;7.97;5.78;;;11.00;99.90;;;;;;5014984;28;20488;-82
2023/04/19 00:17:07;;;;;;;7.97;5.88;;;11.00;99.90;;;;;;5015038;28;20044;-81
2023/04/19 00:19:32;;;;;;;8.90;6.07;;;11.00;99.90;;;;;;5015563;28;20036;-81
2023/04/19 00:21:58;;;;;;;8.30;5.45;;;11.00;99.90;;;;;;5015299;28;20117;-82
2023/04/19 00:24:24;;;;;;;9.95;6.78;;;11.00;99.90;;;;;;5017150;28;20060;-81
2023/04/19 00:26:49;;;;;;;8.00;5.57;;;10.90;99.90;;;;;;5016126;28;20512;-80
2023/04/19 00:29:15;;;;;;;7.68;6.05;;;10.90;99.90;;;;;;5016034;28;20030;-78
2023/04/19 00:31:40;;;;;;;8.15;6.00;;;10.90;99.90;;;;;;5017944;28;20080;-79
2023/04/19 00:34:06;;;;;;;8.25;5.72;;;10.80;99.90;;;;;;5016247;28;20022;-81
2023/04/19 00:36:31;;;;;;;8.07;5.97;;;10.80;99.90;;;;;;5016034;28;20108;-82
2023/04/19 00:38:57;;;;;;;8.85;6.43;;;10.80;99.90;;;;;;5015966;28;20116;-82
2023/04/19 00:41:22;;;;;;;9.73;5.65;;;10.70;99.90;;;;;;5017566;28;20091;-83
2023/04/19 00:43:48;;;;;;;8.43;6.38;;;10.70;99.90;;;;;;5017437;28;20037;-82
2023/04/19 00:46:14;;;;;;;10.02;6.55;;;10.60;99.90;;;;;;5016000;28;20022;-82
2023/04/19 00:48:40;;;;;;;7.95;5.68;;;10.60;99.90;;;;;;5016057;28;20035;-80
2023/04/19 00:51:06;;;;;;;9.35;5.90;;;10.50;99.90;;;;;;5015530;28;20026;-82
2023/04/19 00:53:32;;;;;;;8.20;5.85;;;10.40;99.90;;;;;;5018556;28;20092;-81
2023/04/19 00:56:00;;;;;;;8.55;6.20;;;10.40;99.90;;;;;;5024473;28;20040;-80
2023/04/19 00:58:30;;;;;;;8.85;6.82;;;10.30;99.90;;;;;;5024986;28;20064;-82
2023/04/19 01:00:55;;;;;;;10.25;6.63;;;10.20;99.90;;;;;;5023089;28;20109;-82
2023/04/19 01:03:21;;;;;;;9.18;6.75;;;10.20;99.90;;;;;;5023847;28;20120;-82
2023/04/19 01:05:47;;;;;;;10.23;6.18;;;10.20;99.90;;;;;;5023089;28;20037;-80
2023/04/19 01:08:13;;;;;;;9.32;5.93;;;10.20;99.90;;;;;;5023684;28;20037;-82
2023/04/19 01:10:39;;;;;;;7.65;5.60;;;10.30;99.90;;;;;;5023863;28;20025;-81
2023/04/19 01:13:05;;;;;;;7.93;5.88;;;10.30;99.90;;;;;;5026627;28;20045;-81
2023/04/19 01:15:30;;;;;;;8.73;6.28;;;10.20;99.90;;;;;;5027782;28;20467;-82
2023/04/19 01:17:56;;;;;;;7.80;5.55;;;10.20;99.90;;;;;;5024225;28;20037;-82
2023/04/19 01:20:22;;;;;;;7.75;5.57;;;10.10;99.90;;;;;;5023423;28;20040;-82
2023/04/19 01:22:48;;;;;;;8.80;6.50;;;10.10;99.90;;;;;;5027419;28;20479;-82
2023/04/19 01:25:14;;;;;;;8.43;5.38;;;10.10;99.90;;;;;;5023171;28;20080;-81
2023/04/19 01:27:39;;;;;;;8.27;6.28;;;10.00;99.90;;;;;;5023645;28;20037;-81
2023/04/19 01:30:05;;;;;;;9.20;6.55;;;10.00;99.90;;;;;;5025104;28;20021;-81
2023/04/19 01:32:31;;;;;;;8.15;5.72;;;10.00;99.90;;;;;;5038940;28;20079;-82
2023/04/19 01:34:57;;;;;;;8.45;6.43;;;10.00;99.90;;;;;;5025633;28;22383;-82
2023/04/19 01:37:22;;;;;;;9.32;6.35;;;10.00;99.90;;;;;;5022201;28;20558;-82
2023/04/19 01:39:48;;;;;;;8.18;5.95;;;10.00;99.90;;;;;;5022650;28;20025;-81
2023/04/19 01:42:13;;;;;;;7.18;5.43;;;10.00;99.90;;;;;;5024516;28;20061;-80
2023/04/19 01:44:39;;;;;;;7.40;5.38;;;9.90;99.90;;;;;;5023923;28;20119;-81
2023/04/19 01:47:05;;;;;;;8.90;6.13;;;9.90;99.90;;;;;;5023162;28;20029;-81
2023/04/19 01:49:30;;;;;;;9.18;5.75;;;9.90;99.90;;;;;;5023360;28;20029;-81
2023/04/19 01:51:56;;;;;;;7.75;5.55;;;9.80;99.90;;;;;;5028252;28;20037;-79
2023/04/19 01:54:21;;;;;;;7.85;5.10;;;9.80;99.90;;;;;;5022913;28;20030;-80
2023/04/19 01:56:47;;;;;;;7.57;5.57;;;9.80;99.90;;;;;;5022620;28;20112;-81
2023/04/19 01:59:12;;;;;;;7.25;5.07;;;9.70;99.90;;;;;;5022405;28;20117;-81
2023/04/19 02:01:38;;;;;;;7.80;5.40;;;9.70;99.90;;;;;;5022337;28;20554;-84
2023/04/19 02:04:04;;;;;;;8.77;6.13;;;9.60;99.90;;;;;;5021887;28;21098;-81
2023/04/19 02:06:30;;;;;;;12.13;6.57;;;9.60;99.90;;;;;;5018222;28;20033;-81
2023/04/19 02:08:56;;;;;;;7.85;6.22;;;9.60;99.90;;;;;;5018201;28;20480;-80
2023/04/19 02:11:21;;;;;;;9.30;5.63;;;9.60;99.90;;;;;;5020675;28;20128;-80
2023/04/19 02:13:47;;;;;;;9.35;6.00;;;9.50;99.90;;;;;;5021149;28;20030;-79
2023/04/19 02:16:12;;;;;;;9.90;6.90;;;9.60;99.90;;;;;;5023967;28;20099;-80
2023/04/19 02:18:39;;;;;;;9.18;6.40;;;9.50;99.90;;;;;;5020867;28;20028;-82
2023/04/19 02:21:05;;;;;;;7.53;5.32;;;9.50;99.90;;;;;;5017689;28;20517;-83
2023/04/19 02:23:31;;;;;;;9.77;5.90;;;9.50;99.90;;;;;;5018600;28;20029;-82
2023/04/19 02:25:57;;;;;;;9.15;6.53;;;9.40;99.90;;;;;;5019878;28;20041;-82
2023/04/19 02:28:22;;;;;;;7.25;5.13;;;9.40;99.90;;;;;;5017858;28;20044;-79
2023/04/19 02:30:48;;;;;;;8.93;6.18;;;9.40;99.90;;;;;;5022472;28;20033;-80
2023/04/19 02:33:14;;;;;;;6.93;5.50;;;9.40;99.90;;;;;;5020620;28;20109;-81
2023/04/19 02:35:40;;;;;;;7.28;5.15;;;9.30;99.90;;;;;;5018689;28;20025;-81
2023/04/19 02:38:05;;;;;;;7.35;5.30;;;9.40;99.90;;;;;;5018237;28;20040;-80
2023/04/19 02:40:31;;;;;;;6.88;4.43;;;9.30;99.90;;;;;;5022164;28;20404;-81
2023/04/19 02:42:57;;;;;;;7.47;5.25;;;9.40;99.90;;;;;;5018541;28;20041;-80
2023/04/19 02:45:22;;;;;;;7.13;4.88;;;9.40;99.90;;;;;;5017367;28;20037;-79
2023/04/19 02:47:48;;;;;;;8.15;5.60;;;9.50;99.90;;;;;;5017697;28;20476;-81
2023/04/19 02:50:15;;;;;;;7.82;5.32;;;9.60;99.90;;;;;;5018496;28;20349;-81
2023/04/19 02:52:41;;;;;;;7.95;4.60;;;9.60;99.90;;;;;;5016476;28;20040;-81
2023/04/19 02:55:07;;;;;;;8.38;5.68;;;9.70;99.90;;;;;;5018099;28;20029;-80
2023/04/19 02:57:33;;;;;;;6.85;4.55;;;9.70;99.90;;;;;;5018777;28;20336;-80
2023/04/19 02:59:58;;;;;;;6.78;4.50;;;9.70;99.90;;;;;;5016450;28;20030;-81
2023/04/19 03:02:24;;;;;;;7.15;4.88;;;9.80;99.90;;;;;;5016918;28;20041;-82
2023/04/19 03:04:51;;;;;;;7.32;5.30;;;9.90;99.90;;;;;;5016501;28;20033;-80
2023/04/19 03:07:17;;;;;;;7.63;5.18;;;9.90;99.90;;;;;;5016704;28;20033;-82
2023/04/19 03:09:42;;;;;;;7.43;5.45;;;9.90;99.90;;;;;;5015946;28;20028;-81
2023/04/19 03:12:08;;;;;;;7.82;4.97;;;10.00;99.90;;;;;;5015595;28;20052;-81
2023/04/19 03:14:34;;;;;;;7.70;4.95;;;10.00;99.90;;;;;;5016154;28;20967;-81
2023/04/19 03:16:59;;;;;;;7.55;5.40;;;10.00;99.90;;;;;;5016414;28;20049;-79
2023/04/19 03:19:25;;;;;;;6.40;4.65;;;10.00;99.90;;;;;;5016791;28;20536;-80
2023/04/19 03:21:50;;;;;;;6.75;4.45;;;10.10;99.90;;;;;;5018652;28;20424;-79
2023/04/19 03:24:18;;;;;;;6.30;4.50;;;10.10;99.90;;;;;;5015522;28;20361;-79
2023/04/19 03:26:43;;;;;;;7.05;4.50;;;10.10;99.90;;;;;;5015715;28;20037;-80
2023/04/19 03:29:09;;;;;;;6.65;4.22;;;10.10;99.90;;;;;;5016235;28;20033;-82
2023/04/19 03:31:35;;;;;;;6.75;4.70;;;10.10;99.90;;;;;;5014547;28;20357;-80
2023/04/19 03:34:00;;;;;;;7.45;5.28;;;10.10;99.90;;;;;;5020477;28;20076;-81
2023/04/19 03:36:26;;;;;;;6.80;5.45;;;10.10;99.90;;;;;;5017258;28;20508;-81
2023/04/19 03:38:51;;;;;;;9.23;5.40;;;10.10;99.90;;;;;;5020695;28;20032;-81
2023/04/19 03:41:25;;;;;;;6.45;4.75;;;10.10;99.90;;;;;;5014727;28;20095;-81
2023/04/19 03:43:51;;;;;;;7.00;5.03;;;10.10;99.90;;;;;;5017122;28;20038;-80
2023/04/19 03:46:16;;;;;;;7.45;5.35;;;10.10;99.90;;;;;;5017405;28;20037;-81
2023/04/19 03:48:42;;;;;;;6.82;4.90;;;10.10;99.90;;;;;;5018049;28;20172;-78
2023/04/19 03:51:08;;;;;;;7.50;4.53;;;10.20;99.90;;;;;;5017424;28;20122;-81
2023/04/19 03:53:34;;;;;;;6.90;4.60;;;10.20;99.90;;;;;;5018551;28;20034;-82
2023/04/19 03:55:59;;;;;;;8.10;5.53;;;10.20;99.90;;;;;;5021402;28;20084;-81
2023/04/19 03:58:25;;;;;;;8.70;4.90;;;10.20;99.90;;;;;;5014883;28;20040;-80
2023/04/19 04:00:52;;;;;;;8.43;5.15;;;10.10;99.90;;;;;;5017612;28;20028;-82
2023/04/19 04:03:18;;;;;;;6.72;5.00;;;10.10;99.90;;;;;;5015973;28;20037;-80
2023/04/19 04:05:43;;;;;;;10.05;4.80;;;10.10;99.90;;;;;;5021378;28;20371;-78
2023/04/19 04:08:09;;;;;;;6.80;4.20;;;10.00;99.90;;;;;;5015832;28;20025;-81
2023/04/19 04:10:34;;;;;;;6.55;4.50;;;10.00;99.90;;;;;;5018687;28;20025;-81
2023/04/19 04:13:00;;;;;;;8.52;4.82;;;9.90;99.90;;;;;;5017733;28;20496;-81
2023/04/19 04:15:25;;;;;;;6.53;4.88;;;9.80;99.90;;;;;;5015006;28;20375;-81
2023/04/19 04:17:51;;;;;;;6.53;4.57;;;9.70;99.90;;;;;;5016992;28;20029;-82
2023/04/19 04:20:17;;;;;;;6.88;4.75;;;9.60;99.90;;;;;;5020621;28;20053;-82
2023/04/19 04:22:44;;;;;;;7.22;5.18;;;9.50;99.90;;;;;;5016707;28;20133;-81
2023/04/19 04:25:11;;;;;;;7.15;4.32;;;9.50;99.90;;;;;;5019226;28;20425;-82
2023/04/19 04:27:38;;;;;;;7.78;5.03;;;9.40;99.90;;;;;;5017720;28;20151;-84
2023/04/19 04:30:05;;;;;;;5.95;4.13;;;9.40;99.90;;;;;;5015067;28;20030;-81
2023/04/19 04:32:34;;;;;;;6.72;4.75;;;9.30;99.90;;;;;;5016492;28;20032;-81
2023/04/19 04:35:06;;;;;;;6.00;4.53;;;9.20;99.90;;;;;;5017469;28;20420;-79
2023/04/19 04:37:35;;;;;;;7.72;5.10;;;9.20;99.90;;;;;;5016962;28;20029;-79
2023/04/19 04:40:05;;;;;;;7.03;4.78;;;9.20;99.90;;;;;;5016180;28;20025;-82
2023/04/19 04:42:31;;;;;;;6.88;4.35;;;9.20;99.90;;;;;;5016562;28;20087;-81
2023/04/19 04:44:57;;;;;;;6.05;4.00;;;9.10;99.90;;;;;;5016650;28;20709;-82
2023/04/19 04:47:23;;;;;;;4.80;3.53;;;9.10;99.90;;;;;;5014398;28;20025;-82
2023/04/19 04:49:49;;;;;;;7.15;4.38;;;9.10;99.90;;;;;;5015525;28;20067;-81
2023/04/19 04:52:16;;;;;;;6.80;4.22;;;9.00;99.90;;;;;;5015264;28;20049;-79
2023/04/19 04:54:41;;;;;;;5.88;4.07;;;9.00;99.90;;;;;;5016820;28;20159;-82
2023/04/19 04:57:07;;;;;;;6.03;4.05;;;9.10;99.90;;;;;;5016393;28;20516;-80
2023/04/19 04:59:33;;;;;;;5.80;3.72;;;9.10;99.90;;;;;;5014026;28;20459;-81
2023/04/19 05:01:58;;;;;;;6.97;3.78;;;9.10;99.90;;;;;;5013751;28;20109;-80
2023/04/19 05:04:24;;;;;;;6.40;3.92;;;9.10;99.90;;;;;;5017490;28;20033;-83
2023/04/19 05:06:50;;;;;;;5.32;3.50;;;9.10;99.90;;;;;;5015412;28;20033;-82
2023/04/19 05:09:15;;;;;;;6.68;3.47;;;9.00;99.90;;;;;;5013445;28;20030;-80
2023/04/19 05:11:41;;;;;;;5.97;4.32;;;9.00;99.90;;;;;;5020091;28;20167;-81
2023/04/19 05:14:06;;;;;;;5.40;3.60;;;9.00;99.90;;;;;;5018070;28;20038;-83
2023/04/19 05:16:32;;;;;;;5.55;4.00;;;9.00;99.90;;;;;;5015391;28;20041;-82
2023/04/19 05:18:58;;;;;;;6.45;4.50;;;9.00;99.90;;;;;;5013172;28;20037;-81
2023/04/19 05:21:24;;;;;;;7.10;4.18;;;8.90;99.90;;;;;;5015494;28;20022;-83
2023/04/19 05:23:52;;;;;;;5.63;3.80;;;8.90;99.90;;;;;;5016307;28;20030;-82
2023/04/19 05:26:18;;;;;;;6.90;4.00;;;8.90;99.90;;;;;;5018448;28;20018;-82
2023/04/19 05:28:44;;;;;;;5.85;3.95;;;8.90;99.90;;;;;;5017294;28;20025;-81
2023/04/19 05:31:11;;;;;;;6.00;3.97;;;8.90;99.90;;;;;;5016532;28;20037;-81
2023/04/19 05:33:36;;;;;;;5.90;4.10;;;8.90;99.90;;;;;;5017170;28;20029;-80
2023/04/19 05:36:02;;;;;;;7.93;3.92;;;8.90;99.90;;;;;;5014607;28;20080;-81
2023/04/19 05:38:28;;;;;;;7.55;4.90;;;8.90;99.90;;;;;;5017836;28;22122;-82
2023/04/19 05:40:53;;;;;;;8.77;4.25;;;8.90;99.90;;;;;;5018557;28;20034;-82
2023/04/19 05:43:20;;;;;;;7.28;4.60;;;8.90;99.90;;;;;;5020907;28;20492;-82
2023/04/19 05:45:46;;;;;;;7.03;3.90;;;9.00;99.90;;;;;;5018661;28;20024;-84
2023/04/19 05:48:11;;;;;;;6.78;4.45;;;9.00;99.90;;;;;;5017207;28;20037;-82
2023/04/19 05:50:37;;;;;;;6.72;4.10;;;9.00;99.90;;;;;;5021064;28;20110;-80
2023/04/19 05:53:03;;;;;;;5.53;3.65;;;9.00;99.90;;;;;;5017343;28;20087;-81
2023/04/19 05:55:29;;;;;;;7.63;4.47;;;9.00;99.90;;;;;;5016485;28;20559;-80
2023/04/19 05:57:55;;;;;;;6.82;4.78;;;8.90;99.90;;;;;;5019053;28;20026;-80
2023/04/19 06:00:21;;;;;;;5.75;4.55;;;8.90;99.90;;;;;;5017852;28;20018;-78
2023/04/19 06:02:46;;;;;;;6.85;3.95;;;8.90;99.90;;;;;;5021616;28;20543;-80
2023/04/19 06:05:12;;;;;;;8.90;4.45;;;8.90;99.90;;;;;;5016427;28;20025;-78
2023/04/19 06:07:37;;;;;;;5.55;3.85;;;8.90;99.90;;;;;;5016380;28;20480;-79
2023/04/19 06:10:03;;;;;;;6.45;4.00;;;8.90;99.90;;;;;;5017590;28;20392;-80
2023/04/19 06:12:29;;;;;;;7.70;3.95;;;8.80;99.90;;;;;;5016699;28;20054;-80
2023/04/19 06:14:55;;;;;;;5.32;3.38;;;8.80;99.90;;;;;;5017495;28;20029;-80
2023/04/19 06:17:24;;;;;;;5.90;4.13;;;8.90;99.90;;;;;;5019020;28;20050;-81
2023/04/19 06:19:53;;;;;;;7.03;3.50;;;8.90;99.90;;;;;;5020672;28;20021;-80
2023/04/19 06:22:19;;;;;;;5.32;3.70;;;8.90;99.90;;;;;;5016869;28;20046;-80
2023/04/19 06:24:46;;;;;;;5.78;3.58;;;8.90;99.90;;;;;;5017390;28;20017;-82
2023/04/19 06:27:11;;;;;;;6.22;3.90;;;8.90;99.90;;;;;;5017029;28;20030;-81
2023/04/19 06:29:37;;;;;;;11.23;4.53;;;8.90;99.90;;;;;;5017622;28;20030;-82
2023/04/19 06:32:03;;;;;;;6.57;3.67;;;8.90;99.90;;;;;;5017849;28;20025;-83
2023/04/19 06:34:28;;;;;;;7.13;3.92;;;9.00;99.90;;;;;;5019302;28;20044;-80
2023/04/19 06:36:54;;;;;;;6.78;4.38;;;9.10;99.90;;;;;;5016472;28;20026;-83
2023/04/19 06:39:19;;;;;;;6.95;4.35;;;9.20;99.90;;;;;;5017588;28;20464;-81
2023/04/19 06:41:45;;;;;;;4.97;3.80;;;9.30;99.90;;;;;;5017787;28;20488;-83
2023/04/19 06:44:12;;;;;;;7.53;4.07;;;9.40;99.90;;;;;;5016618;28;20123;-82
2023/04/19 06:46:37;;;;;;;9.70;4.03;;;9.50;99.90;;;;;;5017565;28;20017;-84
2023/04/19 06:49:03;;;;;;;7.07;3.80;;;9.60;99.90;;;;;;5018490;28;20030;-82
2023/04/19 06:51:29;;;;;;;6.57;3.40;;;9.70;99.90;;;;;;5013045;28;20109;-82
2023/04/19 06:53:54;;;;;;;7.47;3.90;;;9.80;99.90;;;;;;5014756;28;20041;-81
2023/04/19 06:56:44;;;;;;;6.13;3.60;;;9.90;99.90;;;;;;5030750;28;20026;-83
2023/04/19 06:59:10;;;;;;;5.03;3.35;;;9.90;99.90;;;;;;5021042;28;20546;-82
2023/04/19 07:01:36;;;;;;;7.10;3.38;;;9.90;99.90;;;;;;5016033;28;20109;-82
2023/04/19 07:04:02;;;;;;;4.82;3.45;;;9.90;99.90;;;;;;5017918;28;20551;-82
2023/04/19 07:06:28;;;;;;;6.40;3.08;;;9.80;99.90;;;;;;5017837;28;20022;-82
2023/04/19 07:08:54;;;;;;;5.28;2.55;;;9.80;99.90;;;;;;5015618;28;20030;-81
2023/04/19 07:11:19;;;;;;;4.30;2.70;;;9.90;99.90;;;;;;5018224;28;20341;-81
2023/04/19 07:13:45;;;;;;;4.13;2.67;;;9.90;99.90;;;;;;5014862;28;20037;-80
2023/04/19 07:16:12;;;;;;;3.47;2.05;;;9.90;99.90;;;;;;5014495;28;20022;-80
2023/04/19 07:18:37;;;;;;;4.40;2.40;;;9.90;99.90;;;;;;5013557;28;20034;-80
2023/04/19 07:21:03;;;;;;;4.40;2.70;;;10.00;99.90;;;;;;5017455;28;20045;-79
2023/04/19 07:23:29;;;;;;;5.43;2.72;;;9.90;99.90;;;;;;5014592;28;20590;-81
2023/04/19 07:25:55;;;;;;;4.60;2.40;;;9.90;99.90;;;;;;5017600;28;20124;-81
2023/04/19 07:28:20;;;;;;;5.07;2.67;;;10.00;99.90;;;;;;5016042;28;20036;-81
2023/04/19 07:30:46;;;;;;;5.22;2.33;;;10.00;99.90;;;;;;5021724;28;20029;-81
2023/04/19 07:33:11;;;;;;;5.07;2.53;;;10.00;99.90;;;;;;5016081;28;20024;-83
2023/04/19 07:35:40;;;;;;;5.30;2.53;;;10.00;99.90;;;;;;5015943;28;20037;-80
2023/04/19 07:38:06;;;;;;;5.13;2.45;;;10.00;99.90;;;;;;5019507;28;20108;-77
2023/04/19 07:40:31;;;;;;;3.92;2.30;;;10.00;99.90;;;;;;5019368;28;20132;-79
2023/04/19 07:42:57;;;;;;;4.97;2.47;;;9.90;99.90;;;;;;5015983;28;20038;-80
2023/04/19 07:45:23;;;;;;;3.50;2.05;;;10.00;99.90;;;;;;5012719;28;20049;-80
2023/04/19 07:47:48;;;;;;;3.83;1.90;;;10.00;99.90;;;;;;5014867;28;20017;-81
2023/04/19 07:50:14;;;;;;;4.82;1.77;;;10.00;99.90;;;;;;5019663;28;20189;-80
2023/04/19 07:52:40;;;;;;;3.13;1.77;;;10.10;99.90;;;;;;5014807;28;20411;-81
2023/04/19 07:55:06;;;;;;;2.95;1.83;;;10.10;99.90;;;;;;5018991;28;20086;-81
2023/04/19 07:57:33;;;;;;;3.10;1.60;;;10.10;99.90;;;;;;5013461;28;20036;-79
2023/04/19 07:59:59;;;;;;;4.28;1.98;;;10.20;99.90;;;;;;5018831;28;20668;-82
2023/04/19 08:02:26;;;;;;;4.78;2.10;;;10.20;99.90;;;;;;5013547;28;20053;-81
2023/04/19 08:04:52;;;;;;;2.72;1.70;;;10.20;99.90;;;;;;5016993;28;20025;-81
2023/04/19 08:07:17;;;;;;;4.68;2.25;;;10.30;99.90;;;;;;5016506;28;20048;-80
2023/04/19 08:09:43;;;;;;;4.20;1.92;;;10.30;99.90;;;;;;5015594;28;20056;-81
2023/04/19 08:12:09;;;;;;;3.42;1.80;;;10.30;99.90;;;;;;5018179;28;20037;-82
2023/04/19 08:14:34;;;;;;;3.20;1.73;;;10.30;99.90;;;;;;5013989;28;20029;-83
2023/04/19 08:17:00;;;;;;;4.13;2.08;;;10.40;99.90;;;;;;5016932;28;20037;-82
2023/04/19 08:19:26;;;;;;;2.60;1.60;;;10.50;99.90;;;;;;5016842;28;20097;-81
2023/04/19 08:21:51;;;;;;;2.60;1.58;;;10.50;99.90;;;;;;5016855;28;20049;-83
2023/04/19 08:24:17;;;;;;;3.42;1.67;;;10.50;99.90;;;;;;5014834;28;20029;-83
2023/04/19 08:26:42;;;;;;;5.43;1.88;;;10.60;99.90;;;;;;5016439;28;20033;-81
2023/04/19 08:29:08;;;;;;;2.78;1.33;;;10.70;99.90;;;;;;5019657;28;20022;-84
2023/04/19 08:31:33;;;;;;;4.18;1.60;;;10.70;99.90;;;;;;5023920;28;20025;-81
2023/04/19 08:33:59;;;;;;;3.65;1.42;;;10.80;99.90;;;;;;5019419;28;20503;-81
2023/04/19 08:36:26;;;;;;;4.18;1.55;;;10.90;99.90;;;;;;5018698;28;20681;-82
2023/04/19 08:38:52;;;;;;;3.40;1.75;;;10.90;99.90;;;;;;5021607;28;20108;-80
2023/04/19 08:41:18;;;;;;;6.07;1.75;;;10.80;99.90;;;;;;5014315;28;20117;-80
2023/04/19 08:43:46;;;;;;;3.28;1.65;;;10.80;99.90;;;;;;5017617;28;20033;-81
2023/04/19 08:46:12;;;;;;;2.70;1.60;;;10.80;99.90;;;;;;5015119;28;20075;-81
2023/04/19 08:48:38;;;;;;;2.13;1.20;;;11.00;99.90;;;;;;5014805;28;20026;-79
2023/04/19 08:51:05;;;;;;;2.75;1.25;;;11.00;99.90;;;;;;5015880;28;20537;-83
2023/04/19 08:53:33;;;;;;;3.22;1.40;;;11.00;99.90;;;;;;5015574;28;20076;-81
2023/04/19 08:55:59;;;;;;;1.88;1.20;;;11.10;99.90;;;;;;5014629;28;20484;-81
2023/04/19 08:58:25;;;;;;;2.70;1.15;;;11.10;99.90;;;;;;5013834;28;20108;-80
2023/04/19 09:00:51;;;;;;;2.17;1.00;;;11.10;99.90;;;;;;5014737;28;21355;-81
2023/04/19 09:03:16;;;;;;;4.20;1.50;;;11.20;99.90;;;;;;5013714;28;20095;-81
2023/04/19 09:05:42;;;;;;;2.22;1.15;;;11.20;99.90;;;;;;5015300;28;20447;-80
2023/04/19 09:08:25;;;;;;;2.35;1.20;;;11.20;99.90;;;;;;5014950;28;20045;-81
2023/04/19 09:10:55;;;;;;;1.95;0.82;;;11.30;99.90;;;;;;5017061;28;20488;-82
2023/04/19 09:13:21;;;;;;;2.50;1.00;;;11.30;99.90;;;;;;5015874;28;20041;-82
2023/04/19 09:15:47;;;;;;;3.17;1.20;;;11.30;99.90;;;;;;5020504;28;20068;-82
2023/04/19 09:18:13;;;;;;;2.47;1.20;;;11.40;99.90;;;;;;5020337;28;20049;-80
2023/04/19 09:20:43;;;;;;;3.55;1.17;;;11.50;99.90;;;;;;5020980;28;20081;-81
2023/04/19 09:23:17;;;;;;;2.13;1.13;;;11.60;99.90;;;;;;5022403;28;20074;-80
2023/04/19 09:26:00;;;;;;;3.00;1.08;;;11.70;99.90;;;;;;5017543;28;20069;-81
2023/04/19 09:28:27;;;;;;;3.07;0.90;;;11.80;99.90;;;;;;5022718;28;20034;-79
2023/04/19 09:30:54;;;;;;;1.40;0.90;;;11.90;99.90;;;;;;5021009;28;20294;-82
2023/04/19 09:33:38;;;;;;;1.77;1.00;;;12.00;99.90;;;;;;5018027;28;20028;-79
2023/04/19 09:36:05;;;;;;;2.40;1.05;;;12.20;99.90;;;;;;5018219;28;20112;-82
2023/04/19 09:38:46;;;;;;;3.40;0.98;;;12.50;99.90;;;;;;5017915;28;20037;-82
2023/04/19 09:41:12;;;;;;;3.55;1.17;;;13.90;99.90;;;;;;5017664;28;20030;-83
2023/04/19 09:43:37;;;;;;;1.60;1.08;;;15.20;99.90;;;;;;5017400;28;20041;-83
2023/04/19 09:46:03;;;;;;;2.58;1.00;;;16.20;99.30;;;;;;5016081;28;20029;-83
2023/04/19 09:48:29;;;;;;;3.05;1.17;;;16.90;98.90;;;;;;5017877;28;20053;-82
2023/04/19 09:50:55;;;;;;;3.78;1.10;;;17.50;97.80;;;;;;5018671;28;20025;-82
2023/04/19 09:53:22;;;;;;;1.55;0.82;;;18.10;97.40;;;;;;5018291;28;20026;-83
2023/04/19 09:55:48;;;;;;;2.53;0.82;;;18.50;96.80;;;;;;5020884;28;20029;-82
2023/04/19 09:58:15;;;;;;;1.55;0.80;;;19.10;96.40;;;;;;5017598;28;20115;-80
2023/04/19 10:00:43;;;;;;;2.45;1.00;;;19.60;96.40;;;;;;5020349;28;20029;-82
2023/04/19 10:03:09;;;;;;;2.00;0.80;;;19.90;94.90;;;;;;5016216;28;20120;-83
2023/04/19 10:05:40;;;;;;;1.42;0.90;;;20.10;95.00;;;;;;5016912;28;20369;-81
2023/04/19 10:08:07;;;;;;;3.92;1.10;;;20.50;94.50;;;;;;5017474;28;20030;-83
2023/04/19 10:10:33;;;;;;;1.92;1.20;;;20.60;93.50;;;;;;5019544;28;20062;-82
2023/04/19 10:13:02;;;;;;;1.35;0.80;;;20.50;92.50;;;;;;5017888;28;20045;-83
2023/04/19 10:15:29;;;;;;;1.42;0.70;;;20.50;92.50;;;;;;5016204;28;20026;-82
2023/04/19 10:17:55;;;;;;;2.20;1.00;;;20.80;92.40;;;;;;5015884;28;20025;-82
2023/04/19 10:20:33;;;;;;;1.58;0.90;;;21.10;92.00;;;;;;5017832;28;20037;-82
2023/04/19 10:22:59;;;;;;;2.40;0.95;;;21.40;91.30;;;;;;5020907;28;20072;-84
2023/04/19 10:25:29;;;;;;;1.70;1.00;;;21.40;90.40;;;;;;5016805;28;20120;-82
2023/04/19 10:27:54;;;;;;;2.15;1.00;;;21.60;90.30;;;;;;5015341;28;20444;-83
2023/04/19 10:30:22;;;;;;;4.00;1.20;;;21.70;90.00;;;;;;5019241;28;20490;-81
2023/04/19 10:32:52;;;;;;;2.45;1.10;;;22.00;88.40;;;;;;5015880;28;20021;-81
2023/04/19 10:35:23;;;;;;;1.92;0.80;;;22.20;87.20;;;;;;5017710;28;20029;-82
2023/04/19 10:38:36;;;;;;;1.58;0.90;;;22.30;86.70;;;;;;5020106;28;20048;-82
2023/04/19 10:41:03;;;;;;;1.92;0.90;;;22.30;86.10;;;;;;4992541;28;20604;-80
2023/04/19 10:43:33;;;;;;;2.50;0.80;;;22.30;85.20;;;;;;4976263;28;20048;-81
2023/04/19 10:46:21;;;;;;;1.73;0.80;;;22.30;84.90;;;;;;5005415;28;20811;-81
2023/04/19 10:48:57;;;;;;;3.13;1.05;;;22.50;84.60;;;;;;5009125;28;20056;-81
2023/04/19 10:51:26;;;;;;;1.48;0.90;;;22.80;83.10;;;;;;5014345;28;20041;-81
2023/04/19 10:53:59;;;;;;;1.45;0.90;;;22.60;82.30;;;;;;5013251;28;20029;-83
2023/04/19 10:56:33;;;;;;;1.10;0.82;;;22.40;81.60;;;;;;5013487;28;20136;-83
2023/04/19 10:59:09;;;;;;;1.88;1.17;;;22.60;81.70;;;;;;5014615;28;20029;-81
2023/04/19 11:01:38;;;;;;;2.53;1.00;;;22.60;81.30;;;;;;5016666;28;20392;-83
2023/04/19 11:04:08;;;;;;;1.88;1.13;;;22.80;80.60;;;;;;5016160;28;21052;-82
2023/04/19 11:06:34;;;;;;;2.97;1.10;;;22.90;80.10;;;;;;5015434;28;20017;-81
2023/04/19 11:09:02;;;;;;;2.67;1.30;;;23.20;78.30;;;;;;5014967;28;20087;-80
2023/04/19 11:11:27;;;;;;;2.50;1.10;;;23.20;77.80;;;;;;5015758;28;20057;-80
2023/04/19 11:13:55;;;;;;;1.55;1.08;;;23.40;77.30;;;;;;5015325;28;20028;-82
2023/04/19 11:16:21;;;;;;;4.15;1.30;;;23.30;75.30;;;;;;5014397;28;20152;-82
2023/04/19 11:18:46;;;;;;;2.85;1.00;;;23.20;75.10;;;;;;5016344;28;20025;-84
2023/04/19 11:21:17;;;;;;;2.22;1.35;;;23.10;75.70;;;;;;5017255;28;20029;-83
2023/04/19 11:23:43;;;;;;;1.80;1.30;;;23.40;73.90;;;;;;5013609;28;20045;-82
2023/04/19 11:26:11;;;;;;;2.88;1.08;;;23.40;72.90;;;;;;5013883;28;20060;-82
2023/04/19 11:28:37;;;;;;;3.47;1.20;;;23.50;72.90;;;;;;5013191;28;20160;-81
2023/04/19 11:31:04;;;;;;;2.00;1.20;;;23.70;72.40;;;;;;5019204;28;20475;-81
2023/04/19 11:33:33;;;;;;;3.20;1.50;;;24.10;71.40;;;;;;5014515;28;20045;-79
2023/04/19 11:35:58;;;;;;;2.50;1.20;;;24.40;70.60;;;;;;5016692;28;20960;-84
2023/04/19 11:38:27;;;;;;;2.20;1.20;;;24.40;70.10;;;;;;5016238;28;20499;-82
2023/04/19 11:41:04;;;;;;;2.03;1.20;;;24.50;69.00;;;;;;5013126;28;20029;-83
2023/04/19 11:43:36;;;;;;;2.10;1.48;;;24.60;67.60;;;;;;5014289;28;20128;-81
2023/04/19 11:46:12;;;;;;;4.05;1.20;;;24.60;67.80;;;;;;5016447;28;20058;-82
2023/04/19 11:48:48;;;;;;;1.73;0.95;;;24.80;68.20;;;;;;5014276;28;20026;-80
2023/04/19 11:51:14;;;;;;;4.32;1.20;;;25.00;68.30;;;;;;5014864;28;20033;-83
2023/04/19 11:53:40;;;;;;;4.15;1.25;;;25.30;67.70;;;;;;5015637;28;20029;-81
2023/04/19 11:56:07;;;;;;;2.50;1.48;;;25.50;67.20;;;;;;5014558;28;20034;-84
2023/04/19 11:58:48;;;;;;;1.90;1.05;;;25.60;66.80;;;;;;5017133;28;20035;-82
2023/04/19 12:01:21;;;;;;;2.17;1.38;;;25.70;66.40;;;;;;5017374;28;20033;-82
2023/04/19 12:03:55;;;;;;;2.10;1.48;;;25.70;65.50;;;;;;5014585;28;20124;-84
2023/04/19 12:06:29;;;;;;;2.88;1.40;;;25.60;64.20;;;;;;5017674;28;20360;-80
2023/04/19 12:08:56;;;;;;;2.33;1.20;;;25.50;63.90;;;;;;5012984;28;20072;-81
2023/04/19 12:11:40;;;;;;;3.63;1.50;;;25.40;64.20;;;;;;5015435;28;21203;-84
2023/04/19 12:14:14;;;;;;;2.90;1.30;;;25.50;64.00;;;;;;5015617;28;20056;-81
2023/04/19 12:16:40;;;;;;;2.90;1.30;;;25.60;63.00;;;;;;5010837;28;20052;-81
2023/04/19 12:19:19;;;;;;;2.35;1.23;;;25.60;63.30;;;;;;5026803;28;20149;-85
2023/04/19 12:21:45;;;;;;;3.75;1.42;;;25.80;62.10;;;;;;5017275;28;20814;-79
2023/04/19 12:24:13;;;;;;;2.83;1.30;;;25.80;62.20;;;;;;5015986;28;20154;-83
2023/04/19 12:26:55;;;;;;;2.13;1.33;;;25.80;62.80;;;;;;5014517;28;20034;-82
2023/04/19 12:29:21;;;;;;;1.52;1.20;;;25.80;61.50;;;;;;5014426;28;20022;-83
2023/04/19 12:31:46;;;;;;;1.80;1.15;;;25.80;62.10;;;;;;5018288;28;20021;-83
2023/04/19 12:34:12;;;;;;;3.15;1.25;;;26.00;61.90;;;;;;5014313;28;20515;-83
2023/04/19 12:36:37;;;;;;;3.15;1.38;;;26.10;61.90;;;;;;5018360;28;20174;-82
2023/04/19 12:39:03;;;;;;;2.63;1.20;;;26.10;61.20;;;;;;5019347;28;20032;-83
2023/04/19 12:41:29;;;;;;;3.03;1.20;;;26.10;61.10;;;;;;5016803;28;20049;-82
2023/04/19 12:43:55;;;;;;;2.20;1.40;;;26.10;61.40;;;;;;5017184;28;20033;-84
2023/04/19 12:46:20;;;;;;;3.17;1.60;;;26.30;61.70;;;;;;5015592;28;20025;-83
2023/04/19 12:48:46;;;;;;;5.00;1.70;;;26.40;61.30;;;;;;5015522;28;20478;-82